Time;durP1;ratioP1;P1;durP2;ratioP2;P2;SDS_P1;SDS_P2;PMS_P1;PMS_P2;Temp;Humidity;BMP_temperature;BMP_pressure;BME280_temperature;BME280_humidity;BME280_pressure;Samples;Min_cycle;Max_cycle;Signal;HPM_P1;HPM_P2
2023/09/07 00:00:12;;;;;;;3.83;3.50;;;18.50;99.90;;;;;;5042346;28;20231;-83
2023/09/07 00:02:39;;;;;;;4.53;4.13;;;18.50;99.90;;;;;;5054468;28;20223;-83
2023/09/07 00:05:08;;;;;;;7.80;4.18;;;18.40;99.90;;;;;;5039967;28;20291;-83
2023/09/07 00:07:35;;;;;;;6.05;3.75;;;18.40;99.90;;;;;;5055268;28;20226;-83
2023/09/07 00:10:01;;;;;;;3.88;3.58;;;18.40;99.90;;;;;;5051497;28;20227;-83
2023/09/07 00:12:28;;;;;;;5.25;3.88;;;18.40;99.90;;;;;;5038282;28;20236;-83
2023/09/07 00:14:56;;;;;;;4.32;3.92;;;18.30;99.90;;;;;;5054936;28;20305;-84
2023/09/07 00:17:23;;;;;;;5.18;4.00;;;18.30;99.90;;;;;;5043765;28;20314;-82
2023/09/07 00:19:50;;;;;;;4.57;3.78;;;18.30;99.90;;;;;;5054310;28;20231;-83
2023/09/07 00:22:19;;;;;;;5.88;3.50;;;18.30;99.90;;;;;;5038428;28;20219;-83
2023/09/07 00:24:47;;;;;;;5.25;3.92;;;18.20;99.90;;;;;;5058121;28;20234;-84
2023/09/07 00:27:13;;;;;;;4.47;3.80;;;18.20;99.90;;;;;;5055867;28;20223;-82
2023/09/07 00:29:40;;;;;;;4.70;4.13;;;18.20;99.90;;;;;;5062155;28;20227;-82
2023/09/07 00:32:08;;;;;;;5.65;4.55;;;18.20;99.90;;;;;;5056121;28;20645;-83
2023/09/07 00:34:35;;;;;;;4.85;3.95;;;18.20;99.90;;;;;;5035192;28;20248;-83
2023/09/07 00:37:02;;;;;;;4.28;3.88;;;18.20;99.90;;;;;;5058018;28;20269;-83
2023/09/07 00:39:31;;;;;;;4.97;3.85;;;18.10;99.90;;;;;;5040080;28;20222;-82
2023/09/07 00:41:58;;;;;;;5.35;3.78;;;18.10;99.90;;;;;;5049817;28;20231;-82
2023/09/07 00:44:24;;;;;;;4.97;4.05;;;18.10;99.90;;;;;;5062721;28;20219;-83
2023/09/07 00:46:51;;;;;;;6.80;4.18;;;18.10;99.90;;;;;;5055592;28;20311;-83
2023/09/07 00:49:19;;;;;;;4.63;4.07;;;18.00;99.90;;;;;;5044274;28;20759;-83
2023/09/07 00:51:46;;;;;;;5.22;4.20;;;18.00;99.90;;;;;;5044642;28;20728;-82
2023/09/07 00:54:12;;;;;;;7.55;4.10;;;17.90;99.90;;;;;;5050969;28;20313;-82
2023/09/07 00:56:42;;;;;;;4.82;3.90;;;17.90;99.90;;;;;;5039680;28;20220;-83
2023/09/07 00:59:10;;;;;;;4.32;3.92;;;17.90;99.90;;;;;;5058026;28;20234;-83
2023/09/07 01:01:37;;;;;;;4.45;4.05;;;17.90;99.90;;;;;;5059831;28;20788;-83
2023/09/07 01:04:04;;;;;;;4.90;4.03;;;17.90;99.90;;;;;;5044248;28;20302;-82
2023/09/07 01:06:36;;;;;;;4.78;4.25;;;17.80;99.90;;;;;;5057423;28;20320;-82
2023/09/07 01:09:11;;;;;;;5.10;4.07;;;17.80;99.90;;;;;;5054419;28;20905;-81
2023/09/07 01:11:38;;;;;;;5.60;4.50;;;17.80;99.90;;;;;;5047129;28;20223;-83
2023/09/07 01:14:07;;;;;;;4.40;4.00;;;17.70;99.90;;;;;;5062799;28;20237;-82
2023/09/07 01:16:35;;;;;;;4.45;4.05;;;17.70;99.90;;;;;;5043777;28;20219;-82
2023/09/07 01:19:04;;;;;;;4.55;4.10;;;17.60;99.90;;;;;;5045679;28;20839;-82
2023/09/07 01:21:36;;;;;;;5.00;4.50;;;17.60;99.90;;;;;;5062509;28;20247;-81
2023/09/07 01:24:05;;;;;;;4.90;4.28;;;17.60;99.90;;;;;;5046002;28;20296;-82
2023/09/07 01:26:32;;;;;;;4.45;4.05;;;17.60;99.90;;;;;;5044580;28;21038;-83
2023/09/07 01:28:58;;;;;;;7.05;4.75;;;17.60;99.90;;;;;;5059780;28;20227;-83
2023/09/07 01:31:25;;;;;;;7.97;4.72;;;17.50;99.90;;;;;;5059159;28;20896;-83
2023/09/07 01:33:52;;;;;;;4.85;4.45;;;17.50;99.90;;;;;;5055209;28;20319;-82
2023/09/07 01:36:18;;;;;;;6.13;4.25;;;17.50;99.90;;;;;;5040555;28;20654;-83
2023/09/07 01:38:46;;;;;;;5.07;4.57;;;17.50;99.90;;;;;;5038625;28;20322;-82
2023/09/07 01:41:13;;;;;;;6.40;4.65;;;17.50;99.90;;;;;;5039523;28;20215;-82
2023/09/07 01:43:40;;;;;;;6.47;4.80;;;17.40;99.90;;;;;;5038526;28;20305;-82
2023/09/07 01:46:06;;;;;;;5.07;3.92;;;17.40;99.90;;;;;;5059930;28;20710;-82
2023/09/07 01:48:34;;;;;;;5.80;4.78;;;17.40;99.90;;;;;;5043912;28;20228;-84
2023/09/07 01:51:01;;;;;;;4.68;4.28;;;17.40;99.90;;;;;;5041031;28;20235;-82
2023/09/07 01:53:27;;;;;;;5.22;4.72;;;17.40;99.90;;;;;;5040101;28;20273;-82
2023/09/07 01:55:56;;;;;;;5.03;4.50;;;17.30;99.90;;;;;;5055171;28;20275;-83
2023/09/07 01:58:23;;;;;;;6.93;4.55;;;17.30;99.90;;;;;;5044929;28;20416;-83
2023/09/07 02:00:50;;;;;;;4.95;4.35;;;17.30;99.90;;;;;;5048160;28;20251;-82
2023/09/07 02:03:17;;;;;;;5.22;4.72;;;17.30;99.90;;;;;;5040222;28;20303;-83
2023/09/07 02:05:46;;;;;;;7.00;4.85;;;17.20;99.90;;;;;;5042430;28;20223;-83
2023/09/07 02:08:12;;;;;;;7.07;4.70;;;17.30;99.90;;;;;;5047845;28;20303;-82
2023/09/07 02:10:39;;;;;;;5.85;4.78;;;17.20;99.90;;;;;;5044072;28;20811;-83
2023/09/07 02:13:07;;;;;;;6.28;4.82;;;17.20;99.90;;;;;;5037316;28;21286;-82
2023/09/07 02:15:34;;;;;;;6.90;5.03;;;17.20;99.90;;;;;;5053692;28;20220;-81
2023/09/07 02:18:03;;;;;;;5.15;4.65;;;17.10;99.90;;;;;;5041238;28;20314;-84
2023/09/07 02:20:30;;;;;;;5.68;4.85;;;17.10;99.90;;;;;;5041251;28;20318;-82
2023/09/07 02:22:57;;;;;;;7.47;5.20;;;17.10;99.90;;;;;;5052552;28;20228;-83
2023/09/07 02:25:24;;;;;;;5.57;4.40;;;17.10;99.90;;;;;;5056732;28;20215;-82
2023/09/07 02:27:51;;;;;;;6.07;5.32;;;17.10;99.90;;;;;;5040929;28;20231;-84
2023/09/07 02:30:19;;;;;;;5.00;4.50;;;17.00;99.90;;;;;;5058088;28;20660;-83
2023/09/07 02:32:45;;;;;;;6.07;5.47;;;17.00;99.90;;;;;;5060792;28;20306;-83
2023/09/07 02:35:12;;;;;;;6.07;5.47;;;17.00;99.90;;;;;;5041195;28;20236;-83
2023/09/07 02:37:40;;;;;;;5.63;5.10;;;17.00;99.90;;;;;;5049249;28;20223;-82
2023/09/07 02:40:09;;;;;;;5.50;4.68;;;17.00;99.90;;;;;;5043795;28;20239;-83
2023/09/07 02:42:36;;;;;;;5.72;5.18;;;17.00;99.90;;;;;;5045692;28;21049;-83
2023/09/07 02:45:04;;;;;;;5.25;4.75;;;17.00;99.90;;;;;;5040746;28;20771;-81
2023/09/07 02:47:32;;;;;;;5.07;4.68;;;16.90;99.90;;;;;;5042344;28;20242;-82
2023/09/07 02:49:59;;;;;;;5.57;4.72;;;16.90;99.90;;;;;;5040916;28;21196;-82
2023/09/07 02:52:26;;;;;;;5.90;5.13;;;16.90;99.90;;;;;;5042072;28;20782;-83
2023/09/07 02:54:53;;;;;;;6.53;4.43;;;16.90;99.90;;;;;;5041728;28;20982;-82
2023/09/07 02:57:20;;;;;;;5.78;5.18;;;16.90;99.90;;;;;;5040151;28;20311;-83
2023/09/07 02:59:48;;;;;;;6.60;5.18;;;16.90;99.90;;;;;;5040833;28;20223;-83
2023/09/07 03:02:14;;;;;;;7.77;4.97;;;16.90;99.90;;;;;;5042513;28;20728;-83
2023/09/07 03:04:42;;;;;;;5.82;5.10;;;16.90;99.90;;;;;;5042430;28;20298;-84
2023/09/07 03:07:10;;;;;;;5.82;5.32;;;16.80;99.90;;;;;;5047076;28;20287;-83
2023/09/07 03:09:37;;;;;;;6.20;5.60;;;16.80;99.90;;;;;;5047970;28;20224;-83
2023/09/07 03:12:06;;;;;;;6.78;5.80;;;16.80;99.90;;;;;;5042272;28;20272;-83
2023/09/07 03:14:32;;;;;;;7.78;5.65;;;16.80;99.90;;;;;;5037401;28;20223;-83
2023/09/07 03:17:03;;;;;;;7.18;5.65;;;16.70;99.90;;;;;;5042956;28;20215;-83
2023/09/07 03:19:30;;;;;;;5.60;5.10;;;16.70;99.90;;;;;;5047064;28;20250;-83
2023/09/07 03:21:58;;;;;;;8.45;6.22;;;16.70;99.90;;;;;;5042837;28;20220;-83
2023/09/07 03:24:28;;;;;;;6.78;5.53;;;16.60;99.90;;;;;;5051815;28;20220;-82
2023/09/07 03:26:55;;;;;;;6.43;5.82;;;16.60;99.90;;;;;;5041969;28;20310;-82
2023/09/07 03:29:22;;;;;;;6.37;5.63;;;16.60;99.90;;;;;;5045150;28;20486;-84
2023/09/07 03:31:50;;;;;;;6.97;5.70;;;16.60;99.90;;;;;;5033481;28;20246;-83
2023/09/07 03:34:17;;;;;;;6.78;5.93;;;16.50;99.90;;;;;;5027989;28;20303;-83
2023/09/07 03:36:44;;;;;;;7.40;6.22;;;16.50;99.90;;;;;;5041261;28;20215;-83
2023/09/07 03:39:13;;;;;;;6.45;5.45;;;16.40;99.90;;;;;;5034717;28;22022;-81
2023/09/07 03:41:40;;;;;;;8.07;5.82;;;16.40;99.90;;;;;;5052263;28;20220;-83
2023/09/07 03:44:07;;;;;;;7.57;5.73;;;16.40;99.90;;;;;;5036085;28;20215;-83
2023/09/07 03:46:34;;;;;;;6.93;5.90;;;16.40;99.90;;;;;;5039284;28;20273;-83
2023/09/07 03:49:01;;;;;;;7.13;5.90;;;16.30;99.90;;;;;;5052625;28;20226;-83
2023/09/07 03:51:28;;;;;;;7.35;6.63;;;16.30;99.90;;;;;;5040036;28;20227;-84
2023/09/07 03:53:55;;;;;;;6.72;6.10;;;16.30;99.90;;;;;;5047343;28;20669;-83
2023/09/07 03:56:23;;;;;;;6.67;6.07;;;16.30;99.90;;;;;;5039299;28;20884;-83
2023/09/07 03:58:50;;;;;;;7.70;6.78;;;16.20;99.90;;;;;;5056552;28;20292;-82
2023/09/07 04:01:17;;;;;;;7.97;6.87;;;16.20;99.90;;;;;;5043269;28;20230;-83
2023/09/07 04:03:44;;;;;;;7.18;6.45;;;16.20;99.90;;;;;;5035095;28;20311;-81
2023/09/07 04:06:12;;;;;;;8.50;6.53;;;16.20;99.90;;;;;;5041309;28;20226;-82
2023/09/07 04:08:38;;;;;;;7.93;6.43;;;16.10;99.90;;;;;;5034318;28;20319;-82
2023/09/07 04:11:06;;;;;;;7.23;6.53;;;16.10;99.90;;;;;;5051705;28;20291;-82
2023/09/07 04:13:36;;;;;;;6.68;6.05;;;16.10;99.90;;;;;;5042623;28;20312;-83
2023/09/07 04:16:03;;;;;;;6.50;5.90;;;16.10;99.90;;;;;;5047641;28;20792;-82
2023/09/07 04:18:30;;;;;;;7.00;6.00;;;16.00;99.90;;;;;;5054615;28;20223;-84
2023/09/07 04:21:05;;;;;;;7.73;6.97;;;16.00;99.90;;;;;;5040202;28;20297;-83
2023/09/07 04:23:34;;;;;;;7.10;6.40;;;16.00;99.90;;;;;;5039424;28;20215;-84
2023/09/07 04:26:06;;;;;;;7.53;6.47;;;16.00;99.90;;;;;;5036490;28;20278;-80
2023/09/07 04:28:35;;;;;;;8.60;6.50;;;16.00;99.90;;;;;;5030703;28;20667;-81
2023/09/07 04:31:01;;;;;;;9.47;7.07;;;16.00;99.90;;;;;;5043651;28;20220;-82
2023/09/07 04:33:30;;;;;;;6.57;5.97;;;16.00;99.90;;;;;;5042387;28;20244;-82
2023/09/07 04:35:57;;;;;;;7.65;6.80;;;16.00;99.90;;;;;;5051781;28;20222;-82
2023/09/07 04:38:24;;;;;;;7.50;6.73;;;16.00;99.90;;;;;;5047664;28;20309;-84
2023/09/07 04:40:51;;;;;;;8.13;6.00;;;16.00;99.90;;;;;;5055032;28;20834;-81
2023/09/07 04:43:17;;;;;;;7.33;6.70;;;15.90;99.90;;;;;;5040049;28;20732;-83
2023/09/07 04:45:48;;;;;;;7.87;7.07;;;15.90;99.90;;;;;;5037264;28;20216;-81
2023/09/07 04:48:15;;;;;;;7.20;6.50;;;15.90;99.90;;;;;;5038630;28;20281;-81
2023/09/07 04:50:41;;;;;;;8.50;6.90;;;15.90;99.90;;;;;;5044397;28;20220;-81
2023/09/07 04:53:08;;;;;;;7.28;6.63;;;15.90;99.90;;;;;;5043191;28;20792;-81
2023/09/07 04:55:38;;;;;;;7.03;6.30;;;15.90;99.90;;;;;;5038537;28;21963;-80
2023/09/07 04:58:05;;;;;;;8.43;6.95;;;15.90;99.90;;;;;;5040250;28;20219;-81
2023/09/07 05:00:32;;;;;;;6.90;6.28;;;15.90;99.90;;;;;;5034433;28;20303;-81
2023/09/07 05:03:00;;;;;;;7.25;6.47;;;15.90;99.90;;;;;;5036875;28;20216;-82
2023/09/07 05:05:27;;;;;;;7.50;6.80;;;15.90;99.90;;;;;;5040181;28;20279;-83
2023/09/07 05:07:54;;;;;;;9.23;6.95;;;16.00;99.90;;;;;;5037329;28;20281;-82
2023/09/07 05:10:21;;;;;;;8.02;6.85;;;15.90;99.90;;;;;;5038998;28;20274;-82
2023/09/07 05:12:48;;;;;;;7.38;6.60;;;16.00;99.90;;;;;;5061717;28;20219;-82
2023/09/07 05:15:15;;;;;;;9.60;7.28;;;16.00;99.90;;;;;;5034149;28;20259;-81
2023/09/07 05:17:42;;;;;;;7.50;6.78;;;16.00;99.90;;;;;;5040137;28;20306;-82
2023/09/07 05:20:12;;;;;;;7.70;6.40;;;16.00;99.90;;;;;;5044731;28;20634;-82
2023/09/07 05:22:40;;;;;;;7.57;6.88;;;16.00;99.90;;;;;;5045118;28;20277;-82
2023/09/07 05:25:09;;;;;;;9.02;6.80;;;16.10;99.90;;;;;;5054471;28;20273;-82
2023/09/07 05:27:36;;;;;;;7.10;6.35;;;16.10;99.90;;;;;;5047995;28;20223;-82
2023/09/07 05:30:04;;;;;;;8.73;7.13;;;16.10;99.90;;;;;;5064053;28;20221;-82
2023/09/07 05:32:31;;;;;;;7.38;6.63;;;16.20;99.90;;;;;;5059568;28;20601;-82
2023/09/07 05:34:58;;;;;;;7.57;6.85;;;16.20;99.90;;;;;;5053702;28;20219;-82
2023/09/07 05:37:26;;;;;;;7.53;6.43;;;16.30;99.90;;;;;;5070392;28;20230;-82
2023/09/07 05:39:53;;;;;;;7.68;6.97;;;16.30;99.90;;;;;;5039565;28;20277;-82
2023/09/07 05:42:20;;;;;;;7.25;6.47;;;16.30;99.90;;;;;;5056406;28;20322;-82
2023/09/07 05:44:47;;;;;;;7.50;6.40;;;16.30;99.90;;;;;;5047411;28;20219;-82
2023/09/07 05:47:13;;;;;;;8.48;6.75;;;16.40;99.90;;;;;;5048768;28;20708;-82
2023/09/07 05:49:40;;;;;;;9.80;6.30;;;16.40;99.90;;;;;;5055565;28;20314;-81
2023/09/07 05:52:08;;;;;;;7.22;6.53;;;16.40;99.90;;;;;;5051725;28;20230;-82
2023/09/07 05:54:36;;;;;;;7.25;6.50;;;16.40;99.90;;;;;;5060625;28;20227;-81
2023/09/07 05:57:03;;;;;;;6.95;6.25;;;16.50;99.90;;;;;;5041016;28;20215;-82
2023/09/07 05:59:30;;;;;;;9.65;6.72;;;16.60;99.90;;;;;;5051801;28;20791;-82
2023/09/07 06:01:57;;;;;;;7.60;6.80;;;16.60;99.90;;;;;;5031627;28;20694;-83
2023/09/07 06:04:24;;;;;;;6.78;6.10;;;16.60;99.90;;;;;;5061434;28;20254;-82
2023/09/07 06:06:51;;;;;;;6.63;6.03;;;16.70;99.90;;;;;;5048615;28;20229;-82
2023/09/07 06:09:17;;;;;;;8.07;6.68;;;16.70;99.90;;;;;;5064228;28;20215;-82
2023/09/07 06:11:45;;;;;;;7.65;6.50;;;16.80;99.90;;;;;;5057873;28;20235;-83
2023/09/07 06:14:12;;;;;;;9.70;6.63;;;16.80;99.90;;;;;;5045701;28;20220;-82
2023/09/07 06:16:39;;;;;;;7.05;6.35;;;16.90;99.90;;;;;;5047811;28;20222;-83
2023/09/07 06:19:07;;;;;;;6.72;6.13;;;16.90;99.90;;;;;;5048331;28;20320;-83
2023/09/07 06:21:34;;;;;;;7.10;5.75;;;17.00;99.90;;;;;;5046590;28;20224;-82
2023/09/07 06:24:01;;;;;;;6.93;6.32;;;17.00;99.90;;;;;;5042756;28;20216;-83
2023/09/07 06:26:27;;;;;;;7.47;6.68;;;17.10;99.90;;;;;;5044516;28;20679;-83
2023/09/07 06:28:55;;;;;;;7.78;6.43;;;17.20;99.90;;;;;;5066574;28;20227;-81
2023/09/07 06:31:22;;;;;;;6.38;5.78;;;17.20;99.90;;;;;;5044228;28;20487;-82
2023/09/07 06:33:49;;;;;;;7.13;6.30;;;17.30;99.90;;;;;;5046594;28;20954;-82
2023/09/07 06:36:16;;;;;;;6.60;6.00;;;17.30;99.90;;;;;;5051104;28;20242;-81
2023/09/07 06:38:42;;;;;;;6.72;6.03;;;17.40;99.90;;;;;;5047414;28;20648;-81
2023/09/07 06:41:10;;;;;;;6.90;6.15;;;17.40;99.90;;;;;;5057045;28;20880;-81
2023/09/07 06:43:37;;;;;;;6.93;6.22;;;17.50;99.90;;;;;;5044999;28;20222;-83
2023/09/07 06:46:08;;;;;;;6.82;5.95;;;17.50;99.90;;;;;;5047104;28;20579;-82
2023/09/07 06:48:35;;;;;;;7.05;6.10;;;17.60;99.90;;;;;;5050600;28;20227;-83
2023/09/07 06:51:04;;;;;;;7.07;6.40;;;17.60;99.90;;;;;;5060376;28;20222;-83
2023/09/07 06:53:31;;;;;;;8.75;6.95;;;17.70;99.90;;;;;;5040331;28;20277;-82
2023/09/07 06:55:58;;;;;;;9.27;6.20;;;17.70;99.90;;;;;;5065891;28;20308;-82
2023/09/07 06:58:25;;;;;;;7.45;6.68;;;17.80;99.90;;;;;;5046560;28;20536;-83
2023/09/07 07:00:52;;;;;;;7.93;6.25;;;17.80;99.90;;;;;;5065883;28;20223;-84
2023/09/07 07:03:20;;;;;;;7.13;6.43;;;17.90;99.90;;;;;;5057355;28;20227;-82
2023/09/07 07:05:47;;;;;;;6.82;6.13;;;17.90;99.90;;;;;;5043998;28;20231;-84
2023/09/07 07:08:13;;;;;;;6.35;5.63;;;18.00;99.90;;;;;;5065357;28;20313;-83
2023/09/07 07:10:40;;;;;;;6.93;5.57;;;18.10;99.90;;;;;;5044565;28;20223;-83
2023/09/07 07:13:07;;;;;;;7.03;6.13;;;18.20;99.90;;;;;;5040969;28;20307;-84
2023/09/07 07:15:35;;;;;;;7.63;5.55;;;18.20;99.90;;;;;;5045356;28;20709;-83
2023/09/07 07:18:08;;;;;;;7.03;5.90;;;18.30;99.90;;;;;;5044546;28;20530;-83
2023/09/07 07:20:36;;;;;;;6.53;5.85;;;18.40;99.90;;;;;;5044140;28;20302;-83
2023/09/07 07:23:06;;;;;;;5.90;5.40;;;18.50;99.90;;;;;;5046461;28;20216;-82
2023/09/07 07:25:34;;;;;;;7.07;6.38;;;18.50;99.90;;;;;;5039262;28;20231;-83
2023/09/07 07:28:03;;;;;;;6.85;6.15;;;18.60;99.90;;;;;;5039759;28;20311;-83
2023/09/07 07:30:31;;;;;;;5.90;5.40;;;18.70;99.90;;;;;;5050814;28;20299;-83
2023/09/07 07:32:57;;;;;;;6.30;5.70;;;18.80;99.90;;;;;;5066049;28;20218;-85
2023/09/07 07:35:25;;;;;;;7.32;5.80;;;18.80;99.90;;;;;;5042509;28;20221;-83
2023/09/07 07:37:53;;;;;;;6.63;5.40;;;18.90;99.90;;;;;;5042924;28;20729;-84
2023/09/07 07:40:20;;;;;;;6.13;5.53;;;19.00;99.90;;;;;;5041035;28;20219;-83
2023/09/07 07:42:48;;;;;;;7.15;6.03;;;19.00;99.90;;;;;;5060588;28;20227;-83
2023/09/07 07:45:19;;;;;;;6.28;5.60;;;19.10;99.90;;;;;;5042802;28;20216;-83
2023/09/07 07:47:46;;;;;;;6.47;5.78;;;19.20;99.90;;;;;;5037760;28;20314;-83
2023/09/07 07:50:13;;;;;;;6.75;5.53;;;19.20;99.90;;;;;;5042760;28;20317;-83
2023/09/07 07:52:40;;;;;;;7.97;5.20;;;19.40;99.90;;;;;;5034260;28;20220;-83
2023/09/07 07:55:09;;;;;;;5.93;5.20;;;19.70;99.90;;;;;;5035535;28;20281;-83
2023/09/07 07:57:37;;;;;;;7.57;5.70;;;20.10;99.90;;;;;;5036542;28;20258;-83
2023/09/07 08:00:05;;;;;;;6.35;5.57;;;20.80;99.90;;;;;;5037293;28;20851;-83
2023/09/07 08:02:40;;;;;;;5.00;4.53;;;21.60;99.90;;;;;;5058628;28;20219;-83
2023/09/07 08:05:10;;;;;;;5.07;4.57;;;22.50;99.90;;;;;;5037660;28;20719;-84
2023/09/07 08:07:38;;;;;;;5.22;4.60;;;23.40;99.90;;;;;;5044415;28;20242;-83
2023/09/07 08:10:06;;;;;;;5.20;4.70;;;24.30;99.90;;;;;;5038882;28;20796;-84
2023/09/07 08:12:34;;;;;;;4.68;4.13;;;25.20;99.90;;;;;;5056663;28;20219;-81
2023/09/07 08:15:01;;;;;;;5.50;3.83;;;26.10;99.90;;;;;;5063739;28;20250;-82
2023/09/07 08:17:28;;;;;;;5.43;3.65;;;26.90;99.90;;;;;;5059536;28;20246;-83
2023/09/07 08:19:56;;;;;;;5.30;4.80;;;27.60;99.90;;;;;;5045207;28;20918;-83
2023/09/07 08:22:24;;;;;;;5.47;4.75;;;28.40;99.90;;;;;;5040197;28;20292;-80
2023/09/07 08:24:52;;;;;;;6.63;4.05;;;29.10;99.90;;;;;;5059139;28;20733;-80
2023/09/07 08:27:19;;;;;;;7.07;4.18;;;29.60;99.90;;;;;;5049834;28;20245;-80
2023/09/07 08:29:53;;;;;;;4.88;3.60;;;30.20;99.90;;;;;;5043179;28;20307;-81
2023/09/07 08:32:21;;;;;;;4.10;3.70;;;30.70;99.00;;;;;;5044733;28;20730;-83
2023/09/07 08:34:47;;;;;;;4.68;4.20;;;31.20;98.40;;;;;;5058732;28;20667;-82
2023/09/07 08:37:14;;;;;;;4.68;4.20;;;31.60;97.10;;;;;;5048068;28;20219;-82
2023/09/07 08:39:41;;;;;;;6.22;4.00;;;31.90;96.60;;;;;;5043329;28;20296;-82
2023/09/07 08:42:09;;;;;;;5.00;3.90;;;32.10;95.80;;;;;;5063352;28;20237;-82
2023/09/07 08:44:39;;;;;;;4.63;4.15;;;32.40;95.20;;;;;;5051777;28;20741;-83
2023/09/07 08:47:07;;;;;;;4.30;3.90;;;32.60;94.00;;;;;;5043548;28;20280;-82
2023/09/07 08:49:34;;;;;;;4.13;3.53;;;32.80;93.70;;;;;;5042630;28;20242;-82
2023/09/07 08:52:03;;;;;;;4.97;4.03;;;33.10;93.80;;;;;;5063534;28;20253;-82
2023/09/07 08:54:32;;;;;;;6.65;4.03;;;33.30;92.60;;;;;;5049044;28;20226;-82
2023/09/07 08:56:59;;;;;;;5.10;4.10;;;33.60;92.10;;;;;;5047352;28;20211;-81
2023/09/07 08:59:26;;;;;;;3.88;3.58;;;33.80;90.50;;;;;;5046180;28;20232;-82
2023/09/07 09:01:58;;;;;;;4.95;3.72;;;34.10;91.00;;;;;;5050249;28;20329;-82
2023/09/07 09:04:27;;;;;;;4.53;3.92;;;34.30;88.40;;;;;;5050285;28;20219;-82
2023/09/07 09:06:54;;;;;;;4.55;3.88;;;34.50;87.30;;;;;;5066793;28;20301;-82
2023/09/07 09:09:25;;;;;;;5.65;4.05;;;34.60;83.80;;;;;;5068148;28;20243;-83
2023/09/07 09:11:51;;;;;;;4.60;4.20;;;34.70;82.30;;;;;;5066198;28;20262;-82
2023/09/07 09:14:19;;;;;;;4.95;3.95;;;34.80;84.20;;;;;;5048921;28;20226;-83
2023/09/07 09:16:50;;;;;;;4.30;3.90;;;34.90;81.60;;;;;;5052508;28;20745;-83
2023/09/07 09:19:17;;;;;;;4.70;3.75;;;35.00;80.20;;;;;;5046335;28;20227;-82
2023/09/07 09:21:46;;;;;;;4.22;3.83;;;35.10;77.10;;;;;;5047132;28;20243;-83
2023/09/07 09:24:14;;;;;;;4.20;3.88;;;35.20;77.30;;;;;;5066180;28;20218;-82
2023/09/07 09:26:41;;;;;;;5.40;3.88;;;35.30;78.30;;;;;;5059583;28;20265;-82
2023/09/07 09:29:09;;;;;;;5.63;3.60;;;35.30;76.90;;;;;;5044447;28;20853;-82
2023/09/07 09:31:37;;;;;;;5.55;3.92;;;35.50;77.50;;;;;;5045896;28;20275;-83
2023/09/07 09:34:05;;;;;;;6.05;3.58;;;35.60;76.50;;;;;;5043231;28;20258;-82
2023/09/07 09:36:35;;;;;;;4.30;3.80;;;35.90;73.90;;;;;;5066009;28;20233;-82
2023/09/07 09:39:04;;;;;;;5.63;4.07;;;36.00;72.70;;;;;;5048655;28;20219;-82
2023/09/07 09:41:33;;;;;;;4.32;3.60;;;36.20;72.50;;;;;;5048777;28;20234;-82
2023/09/07 09:44:01;;;;;;;4.43;3.88;;;36.40;72.00;;;;;;5046859;28;20227;-83
2023/09/07 09:46:29;;;;;;;3.92;3.58;;;36.60;72.00;;;;;;5059179;28;20278;-82
2023/09/07 09:48:58;;;;;;;4.75;4.00;;;36.80;69.30;;;;;;5046430;28;20318;-83
2023/09/07 09:51:25;;;;;;;4.70;3.70;;;36.90;68.70;;;;;;5064504;28;20229;-83
2023/09/07 09:53:54;;;;;;;4.82;3.28;;;37.00;68.40;;;;;;5061489;28;20215;-83
2023/09/07 09:56:22;;;;;;;5.15;3.42;;;37.20;67.10;;;;;;5050187;28;20223;-82
2023/09/07 09:58:49;;;;;;;4.03;3.60;;;37.30;66.20;;;;;;5050153;28;20568;-83
2023/09/07 10:01:16;;;;;;;8.27;3.72;;;37.40;67.20;;;;;;5051704;28;20215;-82
2023/09/07 10:03:46;;;;;;;3.83;3.47;;;37.40;66.10;;;;;;5047489;28;20227;-83
2023/09/07 10:06:18;;;;;;;4.75;3.60;;;37.60;63.70;;;;;;5065452;28;20227;-82
2023/09/07 10:08:55;;;;;;;4.22;3.22;;;37.60;63.50;;;;;;5059658;28;20223;-83
2023/09/07 10:11:32;;;;;;;3.78;3.05;;;37.80;61.50;;;;;;5045984;28;20265;-79
2023/09/07 10:13:59;;;;;;;4.07;3.50;;;37.80;60.10;;;;;;5059471;28;20230;-81
2023/09/07 10:16:27;;;;;;;3.65;2.90;;;37.60;58.30;;;;;;5056984;28;20303;-82
2023/09/07 10:18:54;;;;;;;3.65;3.25;;;37.50;58.50;;;;;;5061441;28;20656;-81
2023/09/07 10:21:25;;;;;;;3.47;3.17;;;37.40;58.90;;;;;;5039104;28;20216;-81
2023/09/07 10:23:53;;;;;;;7.47;3.78;;;37.30;59.60;;;;;;5040197;28;20237;-81
2023/09/07 10:26:21;;;;;;;3.38;3.08;;;37.20;59.20;;;;;;5047930;28;20224;-81
2023/09/07 10:29:00;;;;;;;4.88;3.75;;;37.30;59.70;;;;;;5045745;28;20330;-81
2023/09/07 10:31:27;;;;;;;5.85;4.03;;;37.10;55.60;;;;;;5045935;28;20247;-81
2023/09/07 10:33:54;;;;;;;14.50;4.30;;;36.90;56.20;;;;;;5059437;28;20227;-81
2023/09/07 10:36:22;;;;;;;6.20;3.75;;;36.80;57.40;;;;;;5059845;28;20247;-81
2023/09/07 10:38:49;;;;;;;10.43;4.80;;;36.70;56.90;;;;;;5052465;28;20241;-81
2023/09/07 10:41:16;;;;;;;4.65;3.63;;;36.50;57.50;;;;;;5047864;28;20223;-81
2023/09/07 10:43:50;;;;;;;4.10;3.13;;;36.50;57.70;;;;;;5042148;28;20227;-81
2023/09/07 10:46:19;;;;;;;6.53;3.75;;;36.50;57.30;;;;;;5061163;28;20210;-81
2023/09/07 10:48:46;;;;;;;6.15;3.60;;;36.60;56.60;;;;;;5043568;28;21238;-81
2023/09/07 10:51:14;;;;;;;8.20;4.63;;;36.50;56.10;;;;;;5042437;28;20224;-81
2023/09/07 10:53:41;;;;;;;4.47;3.28;;;36.50;57.00;;;;;;5043864;28;20211;-81
2023/09/07 10:56:07;;;;;;;5.13;3.13;;;36.50;57.30;;;;;;5052452;28;20243;-81
2023/09/07 10:58:38;;;;;;;4.30;3.63;;;36.40;56.40;;;;;;5064231;28;20223;-80
2023/09/07 11:01:06;;;;;;;4.22;3.30;;;36.30;55.00;;;;;;5062694;28;20723;-81
2023/09/07 11:03:36;;;;;;;3.67;2.90;;;36.20;54.40;;;;;;5048994;28;20227;-81
2023/09/07 11:06:07;;;;;;;4.00;3.17;;;36.20;55.20;;;;;;5046876;28;20301;-81
2023/09/07 11:08:34;;;;;;;4.10;3.15;;;36.20;54.90;;;;;;5065712;28;20314;-82
2023/09/07 11:11:01;;;;;;;3.50;2.90;;;36.20;55.00;;;;;;5061009;28;20227;-82
2023/09/07 11:13:28;;;;;;;3.33;2.45;;;36.20;55.50;;;;;;5060587;28;20224;-81
2023/09/07 11:15:55;;;;;;;3.72;2.97;;;36.30;55.30;;;;;;5056329;28;20219;-81
2023/09/07 11:18:24;;;;;;;3.58;2.67;;;36.30;54.90;;;;;;5049382;28;20223;-81
2023/09/07 11:20:52;;;;;;;3.50;3.10;;;36.40;54.50;;;;;;5059236;28;20211;-82
2023/09/07 11:23:19;;;;;;;3.53;2.83;;;36.40;53.90;;;;;;5059349;28;20220;-81
2023/09/07 11:25:48;;;;;;;3.95;3.30;;;36.40;53.00;;;;;;5044561;28;20229;-81
2023/09/07 11:28:18;;;;;;;3.15;2.72;;;36.30;54.10;;;;;;5066565;28;20223;-81
2023/09/07 11:30:51;;;;;;;6.20;3.10;;;36.20;53.80;;;;;;5044421;28;20230;-81
2023/09/07 11:33:18;;;;;;;6.68;2.97;;;36.20;54.00;;;;;;5070056;28;20223;-81
2023/09/07 11:35:46;;;;;;;6.40;2.90;;;36.30;54.30;;;;;;5070131;28;20849;-82
2023/09/07 11:38:15;;;;;;;3.30;3.00;;;36.20;53.60;;;;;;5061345;28;20227;-81
2023/09/07 11:40:44;;;;;;;3.20;2.83;;;36.30;53.50;;;;;;5058665;28;20226;-81
2023/09/07 11:43:11;;;;;;;2.83;2.47;;;36.40;53.10;;;;;;5064664;28;20612;-81
2023/09/07 11:45:37;;;;;;;3.72;3.42;;;36.40;53.20;;;;;;5061050;28;20223;-81
2023/09/07 11:48:05;;;;;;;3.30;3.00;;;36.40;51.60;;;;;;5058664;28;20227;-81
2023/09/07 11:50:32;;;;;;;4.03;3.05;;;36.40;52.60;;;;;;5048674;28;20248;-80
2023/09/07 11:53:00;;;;;;;5.43;3.50;;;36.30;51.60;;;;;;5062974;28;20245;-81
2023/09/07 11:55:26;;;;;;;6.10;3.10;;;36.10;52.30;;;;;;5052299;28;20226;-80
2023/09/07 11:57:53;;;;;;;4.30;3.70;;;35.80;51.70;;;;;;5063478;28;20223;-80
2023/09/07 12:00:21;;;;;;;4.05;3.65;;;35.60;52.50;;;;;;5048727;28;20232;-81
2023/09/07 12:02:48;;;;;;;4.85;3.53;;;35.50;53.40;;;;;;5042344;28;20224;-80
2023/09/07 12:05:15;;;;;;;4.50;3.53;;;35.20;53.10;;;;;;5062660;28;20231;-81
2023/09/07 12:07:43;;;;;;;6.05;3.65;;;35.10;53.90;;;;;;5063031;28;20219;-80
2023/09/07 12:10:13;;;;;;;4.00;3.58;;;35.00;53.80;;;;;;5058728;28;20629;-80
2023/09/07 12:12:41;;;;;;;3.85;3.10;;;34.90;54.50;;;;;;5048634;28;20212;-81
2023/09/07 12:15:09;;;;;;;6.25;3.53;;;34.90;54.40;;;;;;5042903;28;21029;-80
2023/09/07 12:17:35;;;;;;;3.90;3.50;;;34.90;54.30;;;;;;5057715;28;20230;-80
2023/09/07 12:20:03;;;;;;;5.60;3.65;;;34.80;54.00;;;;;;5066014;28;20223;-80
2023/09/07 12:22:29;;;;;;;6.88;3.30;;;34.90;54.00;;;;;;5057103;28;20319;-80
2023/09/07 12:24:56;;;;;;;4.80;3.35;;;34.90;54.30;;;;;;5055926;28;20220;-80
2023/09/07 12:27:24;;;;;;;9.07;3.80;;;35.00;53.90;;;;;;5063351;28;20331;-80
2023/09/07 12:29:51;;;;;;;5.00;3.15;;;35.00;54.00;;;;;;5061835;28;20231;-80
2023/09/07 12:32:18;;;;;;;9.85;4.30;;;35.10;53.70;;;;;;5048166;28;20276;-80
2023/09/07 12:34:44;;;;;;;3.88;3.45;;;35.10;54.10;;;;;;5063162;28;20222;-80
2023/09/07 12:37:11;;;;;;;5.63;3.60;;;35.10;53.90;;;;;;5063557;28;20314;-80
2023/09/07 12:39:38;;;;;;;4.10;3.70;;;35.10;53.70;;;;;;5043660;28;20235;-80
2023/09/07 12:42:05;;;;;;;4.40;3.90;;;35.10;54.20;;;;;;5064664;28;20220;-80
2023/09/07 12:44:33;;;;;;;4.18;3.63;;;34.90;53.10;;;;;;5050941;28;20690;-81
2023/09/07 12:46:59;;;;;;;3.10;2.80;;;34.80;54.00;;;;;;5050885;28;20220;-81
2023/09/07 12:49:26;;;;;;;6.68;3.75;;;34.70;53.70;;;;;;5046855;28;20368;-81